METAR KHKY 192353Z 22003KT 4SM BR SCT003 OVC013 00/00 A3012 RMK AO2 SLP196 60010 T00000000 10006 20000 53006 
METAR KHKY 192253Z 26003KT 3SM BR OVC003 00/00 A3010 RMK AO2 SLP191 P0004 T00000000 
METAR KHKY 192153Z 00000KT 3SM BR OVC003 00/00 A3009 RMK AO2 SNE38 SLP188 P0003 T00000000 
SPECI KHKY 192137Z 00000KT 4SM SN OVC001 00/00 A3008 RMK AO2 P0002 
SPECI KHKY 192124Z 00000KT 2 1/2SM SN OVC001 00/00 A3008 RMK AO2 P0001 
SPECI KHKY 192108Z 00000KT 1 1/4SM SN OVC001 00/00 A3009 RMK AO2 P0000 
METAR KHKY 192053Z 00000KT 1/2SM SN OVC001 00/00 A3010 RMK AO2 SLP189 P0000 60003 T00000000 58008 
METAR KHKY 191953Z 00000KT 1/4SM SN OVC001 00/00 A3012 RMK AO2 SLP198 P0000 T00000000 
SPECI KHKY 191929Z 00000KT 1/2SM SN OVC001 00/00 A3011 RMK AO2 P0000 
METAR KHKY 191853Z 00000KT 3/4SM SN OVC003 01/00 A3013 RMK AO2 SLP201 P0003 T00060000 
SPECI KHKY 191842Z 00000KT 3/4SM SN OVC003 01/00 A3014 RMK AO2 P0002 
SPECI KHKY 191839Z 00000KT 1SM SN OVC001 01/00 A3013 RMK AO2 PRESRR P0002 
METAR KHKY 191753Z 06003KT 1/2SM SN OVC001 01/00 A3012 RMK AO2 SLP197 P0002 60005 T00060000 10039 20006 58022 
SPECI KHKY 191725Z 06003KT 3/4SM SN OVC003 01/00 A3014 RMK AO2 PRESFR P0002 
SPECI KHKY 191714Z 00000KT 1SM SN BKN003 BKN007 01/01 A3018 RMK AO2 P0001 
SPECI KHKY 191703Z 00000KT 1SM SN FEW003 SCT007 01/00 A3017 RMK AO2 P0001 
METAR KHKY 191653Z 00000KT 1SM SN VV007 01/00 A3017 RMK AO2 SLP214 P0003 T00060000 
SPECI KHKY 191602Z 07005KT 1 1/2SM SN BR BKN008 BKN016 BKN025 01/M01 A3019 RMK AO2 P0001 
METAR KHKY 191553Z 00000KT 1 1/2SM SN BKN010 BKN025 02/M01 A3021 RMK AO2 RAB29E32SNB32 SLP225 P0000 T00221011 
SPECI KHKY 191525Z 32003KT 9SM BKN029 BKN050 03/01 A3021 RMK AO2 
METAR KHKY 191453Z 00000KT 8SM BKN037 03/01 A3019 RMK AO2 PRESRR SLP218 T00330006 51027 
METAR KHKY 191353Z 00000KT 9SM OVC050 03/01 A3017 RMK AO2 SLP212 T00330006 
METAR KHKY 191253Z 00000KT 9SM OVC050 03/01 A3013 RMK AO2 SLP200 T00280006 
METAR KHKY 191153Z 00000KT 10SM BKN050 BKN075 03/00 A3010 RMK AO2 SLP190 T00280000 10033 20028 58008 
METAR KHKY 191053Z AUTO 00000KT 10SM OVC060 03/00 A3013 RMK AO2 SLP199 T00280000 
METAR KHKY 190953Z AUTO 03005KT 10SM BKN070 03/00 A3011 RMK AO2 SLP191 T00280000 
METAR KHKY 190853Z AUTO 00000KT 10SM CLR 03/00 A3013 RMK AO2 SLP198 T00280000 58003 
METAR KHKY 190753Z AUTO 00000KT 10SM BKN080 03/00 A3016 RMK AO2 SLP207 T00280000 
METAR KHKY 190653Z AUTO 00000KT 10SM CLR 03/M01 A3013 RMK AO2 SLP199 T00281011 
METAR KHKY 190553Z 00000KT 10SM CLR 03/M02 A3014 RMK AO2 SLP202 T00281017 10033 20028 53005 
METAR KHKY 190453Z 00000KT 10SM CLR 03/M02 A3012 RMK AO2 SLP196 T00281017 400331022 
METAR KHKY 190353Z 00000KT 10SM CLR 03/M01 A3011 RMK AO2 SLP193 T00281011 
METAR KHKY 190253Z 00000KT 10SM CLR 03/M02 A3012 RMK AO2 SLP196 T00331022 58009 
METAR KHKY 190153Z 23004KT 10SM CLR 03/M02 A3016 RMK AO2 SLP210 T00331022 
METAR KHKY 190053Z 23003KT 10SM BKN090 03/M02 A3018 RMK AO2 SLP218 T00331022 
METAR KHKY 182353Z 22003KT 10SM OVC080 03/M03 A3015 RMK AO2 SLP207 T00331028 10033 20028 56007 
METAR KHKY 182253Z 25003KT 10SM SCT090 03/M02 A3017 RMK AO2 PRESRR SLP215 T00331022 
METAR KHKY 182153Z 19005KT 10SM CLR 03/M03 A3014 RMK AO2 SLP203 T00331033 
METAR KHKY 182053Z AUTO 22005KT 10SM CLR 03/M03 A3017 RMK AO2 SLP214 T00331033 55009 
METAR KHKY 181953Z VRB04KT 10SM CLR 03/M04 A3016 RMK AO2 SLP211 T00331039 
METAR KHKY 181853Z VRB03KT 10SM CLR 03/M04 A3019 RMK AO2 SLP220 T00331044 
METAR KHKY 181753Z VRB03KT 10SM CLR 03/M04 A3020 RMK AO2 SLP223 T00281044 10028 21022 58023 
METAR KHKY 181653Z 00000KT 10SM CLR 02/M05 A3023 RMK AO2 SLP234 T00221050 
METAR KHKY 181553Z VRB03KT 10SM CLR 02/M05 A3025 RMK AO2 SLP241 T00171050 
METAR KHKY 181453Z VRB03KT 10SM CLR 01/M06 A3027 RMK AO2 SLP246 T00061056 50015 
METAR KHKY 181353Z 00000KT 10SM CLR M01/M03 A3027 RMK AO2 SLP250 T10061033 
METAR KHKY 181253Z 00000KT 10SM CLR M01/M04 A3024 RMK AO2 SLP236 T10111044 
METAR KHKY 181153Z 00000KT 10SM CLR M02/M05 A3022 RMK AO2 SLP230 T10221050 10006 21022 53015 
METAR KHKY 181053Z AUTO 00000KT 10SM CLR M01/M05 A3020 RMK AO2 SLP222 T10061050 
METAR KHKY 180953Z AUTO 00000KT 10SM CLR M01/M05 A3017 RMK AO2 SLP214 T10111050 
METAR KHKY 180853Z AUTO 00000KT 10SM CLR 00/M05 A3017 RMK AO2 SLP211 T00001050 51014 
METAR KHKY 180753Z AUTO 35003KT 10SM CLR 01/M07 A3016 RMK AO2 SLP208 T00061067 
METAR KHKY 180653Z 01003KT 10SM CLR 00/M06 A3015 RMK AO2 SLP203 T00001061 
METAR KHKY 180553Z 00000KT 10SM CLR M01/M05 A3013 RMK AO2 SLP197 T10111050 10067 21011 50011 
METAR KHKY 180453Z 35007KT 10SM CLR 01/M05 A3013 RMK AO2 SLP198 T00111050 401170011 
METAR KHKY 180353Z 34003KT 10SM CLR 02/M05 A3012 RMK AO2 SLP192 T00221050 
METAR KHKY 180253Z 02003KT 10SM CLR 03/M05 A3010 RMK AO2 SLP185 T00331050 51026 
METAR KHKY 180153Z 33008KT 10SM CLR 04/M06 A3008 RMK AO2 SLP178 T00391056 
METAR KHKY 180053Z 32011G15KT 10SM CLR 06/M07 A3004 RMK AO2 SLP166 T00561072 
METAR KHKY 172353Z 34007KT 10SM CLR 07/M07 A3002 RMK AO2 SLP157 T00671072 10117 20061 51028 
METAR KHKY 172253Z 34007KT 10SM CLR 08/M06 A2999 RMK AO2 SLP148 T00781061 
METAR KHKY 172153Z 29010KT 10SM CLR 09/M06 A2997 RMK AO2 SLP140 T00891061 
METAR KHKY 172053Z 31010G17KT 270V340 10SM CLR 11/M06 A2993 RMK AO2 SLP127 T01061061 53015 
METAR KHKY 171953Z 30012KT 10SM CLR 11/M03 A2991 RMK AO2 SLP118 T01111033 
METAR KHKY 171853Z 28010KT 10SM CLR 12/M01 A2990 RMK AO2 SLP116 T01171006 
METAR KHKY 171753Z 31011G18KT 10SM CLR 12/M02 A2989 RMK AO2 SLP110 T01171017 10117 20061 58007 
METAR KHKY 171653Z 29006KT 10SM CLR 11/06 A2990 RMK AO2 SLP115 T01060056 
METAR KHKY 171553Z AUTO 29004KT 10SM CLR 09/07 A2991 RMK AO2 SLP118 T00890067 
METAR KHKY 171453Z 26003KT 6SM BR SCT002 07/07 A2991 RMK AO2 SLP120 T00720067 51013 
SPECI KHKY 171417Z 00000KT 2 1/2SM BR OVC002 07/07 A2990 RMK AO2 
SPECI KHKY 171408Z 33003KT 1 1/4SM BR OVC002 07/07 A2991 RMK AO2 $ 
METAR KHKY 171353Z 00000KT 1/2SM FG OVC002 07/07 A2990 RMK AO2 SLP116 T00670067 $ 
SPECI KHKY 171318Z 00000KT 1/2SM FG OVC002 06/06 A2989 RMK AO2 $ 
METAR KHKY 171253Z 31003KT 1 3/4SM BR OVC002 06/06 A2989 RMK AO2 SLP114 T00610061 $ 
SPECI KHKY 171225Z 00000KT 2SM BR OVC002 06/06 A2988 RMK AO2 $ 
METAR KHKY 171153Z 00000KT 3SM BR OVC004 06/06 A2987 RMK AO2 SLP107 60005 70015 T00610061 10061 20056 53004 $ 
SPECI KHKY 171139Z AUTO 00000KT 3SM BR OVC004 06/06 A2986 RMK AO2 $ 
SPECI KHKY 171119Z AUTO 00000KT 2 1/2SM BR BKN002 OVC005 06/06 A2986 RMK AO2 $ 
SPECI KHKY 171101Z AUTO 34003KT 1SM BR OVC002 06/06 A2986 RMK AO2 $ 
METAR KHKY 171053Z AUTO 00000KT 3/4SM BR OVC002 06/06 A2986 RMK AO2 SLP106 T00560056 $ 
SPECI KHKY 171029Z AUTO 00000KT 1 3/4SM BR OVC002 06/06 A2986 RMK AO2 $ 
METAR KHKY 170953Z AUTO 21003KT 4SM BR OVC002 06/06 A2985 RMK AO2 SLP100 T00610061 $ 
METAR KHKY 170853Z AUTO 18003KT 4SM BR OVC004 06/06 A2985 RMK AO2 RAE40 SLP102 P0001 60005 T00610061 55008 $ 
SPECI KHKY 170833Z AUTO 00000KT 3SM -RA BR BKN002 BKN065 BKN080 06/06 A2985 RMK AO2 P0001 $ 
SPECI KHKY 170825Z AUTO 00000KT 2 1/2SM -RA BR SCT002 BKN070 06/06 A2985 RMK AO2 P0001 $ 
SPECI KHKY 170805Z AUTO 00000KT 3SM BR SCT002 OVC075 06/06 A2985 RMK AO2 RAE0758 P0000 $ 
METAR KHKY 170753Z AUTO 16003KT 3SM -RA BR BKN002 BKN080 06/06 A2984 RMK AO2 SLP097 P0001 T00610056 $ 
SPECI KHKY 170731Z AUTO 00000KT 3SM -RA BR OVC002 06/06 A2985 RMK AO2 P0001 $ 
SPECI KHKY 170702Z AUTO 00000KT 2 1/2SM -RA BR BKN004 BKN025 OVC050 06/06 A2985 RMK AO2 P0000 $ 
METAR KHKY 170653Z AUTO 00000KT 3SM -RA BR FEW006 SCT025 OVC050 06/06 A2986 RMK AO2 RAB31 SLP102 P0003 T00610056 $ 
SPECI KHKY 170638Z AUTO 00000KT 2 1/2SM RA BR SCT006 BKN027 OVC050 06/06 A2985 RMK AO2 RAB31 P0002 $ 
METAR KHKY 170553Z AUTO 26005KT 4SM BR OVC006 06/06 A2988 RMK AO2 RAB16E46 SLP110 P0000 60007 T00610056 10067 20061 55020 
SPECI KHKY 170500Z AUTO 18006KT 7SM BKN008 OVC029 06/06 A2986 RMK AO2 PRESFR 
METAR KHKY 170453Z AUTO VRB06KT 7SM SCT008 OVC029 06/06 A2988 RMK AO2 RAE29 PRESFR SLP110 P0002 T00610056 400891011 
SPECI KHKY 170421Z AUTO 20005KT 7SM -RA FEW008 BKN031 OVC080 06/06 A2990 RMK AO2 P0002 
METAR KHKY 170353Z 23005KT 7SM -RA FEW021 BKN030 OVC080 06/06 A2992 RMK AO2 SLP124 P0002 T00610056 
SPECI KHKY 170346Z VRB04KT 7SM -RA SCT021 BKN034 OVC075 06/06 A2991 RMK AO2 P0001 
METAR KHKY 170253Z 22006KT 9SM -RA BKN023 OVC027 06/05 A2994 RMK AO2 RAB0154 SLP133 P0002 60003 T00610050 58009